Time;durP1;ratioP1;P1;durP2;ratioP2;P2;SDS_P1;SDS_P2;PMS_P1;PMS_P2;Temp;Humidity;BMP_temperature;BMP_pressure;BME280_temperature;BME280_humidity;BME280_pressure;Samples;Min_cycle;Max_cycle;Signal;HPM_P1;HPM_P2
2022/04/25 00:00:28;;;;;;;0.70;0.70;;;9.60;99.90;;;;;;5240470;28;20227;-76
2022/04/25 00:02:59;;;;;;;0.88;0.88;;;9.50;99.90;;;;;;5206746;28;20331;-80
2022/04/25 00:05:30;;;;;;;0.82;0.82;;;9.60;99.90;;;;;;5177054;28;20038;-75
2022/04/25 00:08:02;;;;;;;0.57;0.57;;;9.60;99.90;;;;;;5204187;28;20215;-76
2022/04/25 00:10:36;;;;;;;0.70;0.70;;;9.50;99.90;;;;;;5224565;28;20053;-77
2022/04/25 00:13:07;;;;;;;0.95;0.95;;;9.60;99.90;;;;;;5246841;28;20016;-77
2022/04/25 00:15:41;;;;;;;0.80;0.80;;;9.50;99.90;;;;;;5266487;28;20038;-77
2022/04/25 00:18:13;;;;;;;0.70;0.70;;;9.50;99.90;;;;;;5252589;28;20034;-77
2022/04/25 00:20:47;;;;;;;0.73;0.73;;;9.70;99.90;;;;;;5245625;28;20337;-74
2022/04/25 00:23:22;;;;;;;0.65;0.65;;;9.70;99.90;;;;;;5244101;28;20039;-76
2022/04/25 00:25:53;;;;;;;0.90;0.90;;;9.80;99.90;;;;;;5255086;28;20249;-77
2022/04/25 00:28:25;;;;;;;0.77;0.77;;;9.80;99.90;;;;;;5248200;28;20028;-77
2022/04/25 00:30:59;;;;;;;0.80;0.80;;;9.80;99.90;;;;;;5250708;28;20321;-77
2022/04/25 00:33:30;;;;;;;0.80;0.80;;;9.70;99.90;;;;;;5229917;28;20031;-77
2022/04/25 00:36:03;;;;;;;0.65;0.65;;;9.70;99.90;;;;;;5248279;28;20035;-78
2022/04/25 00:38:37;;;;;;;0.88;0.88;;;9.70;99.90;;;;;;5248216;28;20401;-77
2022/04/25 00:41:10;;;;;;;0.60;0.60;;;9.70;99.90;;;;;;5240416;28;20032;-77
2022/04/25 00:43:42;;;;;;;0.85;0.85;;;9.80;99.90;;;;;;5230607;28;20032;-77
2022/04/25 00:46:27;;;;;;;0.70;0.70;;;9.90;99.90;;;;;;5248556;28;20038;-76
2022/04/25 00:49:01;;;;;;;0.70;0.70;;;10.10;99.90;;;;;;5247479;28;20330;-77
2022/04/25 00:51:32;;;;;;;0.70;0.70;;;10.10;99.90;;;;;;5248275;28;20036;-77
2022/04/25 00:54:06;;;;;;;0.60;0.60;;;10.20;99.90;;;;;;5229740;28;20072;-75
2022/04/25 00:56:38;;;;;;;1.00;1.00;;;10.20;99.90;;;;;;5229711;28;20127;-77
2022/04/25 00:59:10;;;;;;;0.65;0.65;;;10.50;99.90;;;;;;5230693;28;20038;-78
2022/04/25 01:01:42;;;;;;;0.80;0.80;;;10.60;99.90;;;;;;5269159;28;20022;-76
2022/04/25 01:04:16;;;;;;;0.77;0.77;;;10.70;99.90;;;;;;5248588;28;20032;-78
2022/04/25 01:06:50;;;;;;;0.57;0.57;;;10.80;99.90;;;;;;5213467;28;20043;-77
2022/04/25 01:09:21;;;;;;;0.77;0.77;;;10.90;99.90;;;;;;5248035;28;20028;-78
2022/04/25 01:11:52;;;;;;;0.60;0.60;;;11.00;99.90;;;;;;5248723;28;20046;-77
2022/04/25 01:14:28;;;;;;;0.68;0.68;;;11.10;99.90;;;;;;5248589;28;20037;-78
2022/04/25 01:17:02;;;;;;;0.60;0.60;;;11.20;99.90;;;;;;5252631;28;20023;-76
2022/04/25 01:19:34;;;;;;;0.70;0.70;;;11.20;99.90;;;;;;5230695;28;20032;-76
2022/04/25 01:22:13;;;;;;;0.63;0.63;;;11.20;99.90;;;;;;5228044;28;20039;-79
2022/04/25 01:27:35;;;;;;;0.63;0.63;;;11.30;99.90;;;;;;5246362;28;20012;-75
2022/04/25 01:30:09;;;;;;;0.85;0.85;;;11.30;99.90;;;;;;5246211;28;20024;-78
2022/04/25 01:32:40;;;;;;;0.75;0.75;;;11.40;99.90;;;;;;5228177;28;20054;-77
2022/04/25 01:35:15;;;;;;;0.80;0.80;;;11.30;99.90;;;;;;5227583;28;20032;-76
2022/04/25 01:37:49;;;;;;;0.73;0.73;;;11.30;99.90;;;;;;5227952;28;20214;-75
2022/04/25 01:40:21;;;;;;;0.73;0.73;;;11.20;99.90;;;;;;5245001;28;20026;-78
2022/04/25 01:42:52;;;;;;;0.80;0.80;;;11.20;99.90;;;;;;5227421;28;20340;-77
2022/04/25 01:45:24;;;;;;;0.70;0.70;;;11.10;99.90;;;;;;5245435;28;20286;-76
2022/04/25 01:48:00;;;;;;;0.63;0.63;;;11.00;99.90;;;;;;5228184;28;20035;-76
2022/04/25 01:50:33;;;;;;;0.70;0.70;;;10.90;99.90;;;;;;5226259;28;20048;-76
2022/04/25 01:53:05;;;;;;;0.60;0.60;;;10.90;99.90;;;;;;5232288;28;20047;-78
2022/04/25 01:55:36;;;;;;;0.70;0.70;;;10.80;99.90;;;;;;5252230;28;20361;-78
2022/04/25 01:58:11;;;;;;;0.50;0.50;;;10.70;99.90;;;;;;5245853;28;20055;-75
2022/04/25 02:00:48;;;;;;;0.77;0.77;;;10.60;99.90;;;;;;5260199;28;20036;-76
2022/04/25 02:03:24;;;;;;;0.70;0.70;;;10.60;99.90;;;;;;5247988;28;20035;-77
2022/04/25 02:05:56;;;;;;;0.47;0.47;;;10.60;99.90;;;;;;5237053;28;20050;-76
2022/04/25 02:08:29;;;;;;;0.63;0.63;;;10.60;99.90;;;;;;5214045;28;20032;-77
2022/04/25 02:13:53;;;;;;;0.70;0.70;;;10.70;99.90;;;;;;5247071;28;20047;-77
2022/04/25 02:16:25;;;;;;;0.85;0.85;;;10.60;99.90;;;;;;5244945;28;20024;-78
2022/04/25 02:19:01;;;;;;;0.60;0.60;;;10.70;99.90;;;;;;5244751;28;20329;-77
2022/04/25 02:21:35;;;;;;;0.70;0.70;;;10.70;99.90;;;;;;5264871;28;20054;-77
2022/04/25 02:24:09;;;;;;;0.90;0.90;;;10.70;99.90;;;;;;5254774;28;20021;-76
2022/04/25 02:26:42;;;;;;;0.70;0.70;;;10.70;99.90;;;;;;5194087;28;20033;-75
2022/04/25 02:29:14;;;;;;;0.60;0.60;;;10.70;99.90;;;;;;5244364;28;20035;-77
2022/04/25 02:31:46;;;;;;;0.68;0.68;;;10.80;99.90;;;;;;5257580;28;20020;-78
2022/04/25 02:34:17;;;;;;;0.60;0.60;;;10.80;99.90;;;;;;5231791;28;20043;-76
2022/04/25 02:36:50;;;;;;;0.50;0.50;;;10.80;99.90;;;;;;5249875;28;20036;-79
2022/04/25 02:39:23;;;;;;;0.77;0.77;;;10.80;99.90;;;;;;5216737;28;20032;-75
2022/04/25 02:41:56;;;;;;;0.70;0.70;;;10.80;99.90;;;;;;5232688;28;20040;-78
2022/04/25 02:44:28;;;;;;;0.60;0.60;;;10.90;99.90;;;;;;5249389;28;20032;-76
2022/04/25 02:46:59;;;;;;;0.50;0.50;;;10.90;99.90;;;;;;5249331;28;20340;-76
2022/04/25 02:49:31;;;;;;;0.60;0.60;;;10.90;99.90;;;;;;5233105;28;20028;-75
2022/04/25 02:52:02;;;;;;;0.68;0.68;;;10.90;99.90;;;;;;5248269;28;20231;-76
2022/04/25 02:54:37;;;;;;;0.60;0.60;;;10.90;99.90;;;;;;5244718;28;20033;-78
2022/04/25 02:57:08;;;;;;;;;;;10.90;99.90;;;;;;5225277;28;20333;-76
2022/04/25 02:59:41;;;;;;;0.60;0.60;;;10.90;99.90;;;;;;5250069;28;20132;-77
2022/04/25 03:02:12;;;;;;;0.70;0.70;;;10.90;99.90;;;;;;5246498;28;20043;-78
2022/04/25 03:04:44;;;;;;;0.60;0.60;;;10.90;99.90;;;;;;5217425;28;20055;-76
2022/04/25 03:07:16;;;;;;;0.60;0.60;;;10.80;99.90;;;;;;5221858;28;20322;-77
2022/04/25 03:09:47;;;;;;;0.70;0.70;;;10.70;99.90;;;;;;5228400;28;20028;-75
2022/04/25 03:12:18;;;;;;;0.57;0.57;;;10.50;99.90;;;;;;5242024;28;20333;-78
2022/04/25 03:14:51;;;;;;;0.65;0.65;;;10.30;99.90;;;;;;5204757;28;20029;-80
2022/04/25 03:17:22;;;;;;;0.75;0.75;;;10.30;99.90;;;;;;5199006;28;20294;-79
2022/04/25 03:19:58;;;;;;;0.60;0.60;;;10.20;99.90;;;;;;5240608;28;20035;-76
2022/04/25 03:22:32;;;;;;;0.50;0.50;;;10.20;99.90;;;;;;5211419;28;20034;-79
2022/04/25 03:25:06;;;;;;;0.75;0.75;;;10.20;99.90;;;;;;5255776;28;20017;-75
2022/04/25 03:27:37;;;;;;;0.70;0.70;;;10.20;99.90;;;;;;5238968;28;20028;-79
2022/04/25 03:30:09;;;;;;;0.60;0.60;;;10.10;99.90;;;;;;5230811;28;20029;-76
2022/04/25 03:32:45;;;;;;;0.47;0.47;;;10.20;99.90;;;;;;5212313;28;20247;-78
2022/04/25 03:35:18;;;;;;;0.75;0.75;;;10.20;99.90;;;;;;5227391;28;20035;-76
2022/04/25 03:37:53;;;;;;;0.70;0.70;;;10.20;99.90;;;;;;5228227;28;20032;-76
2022/04/25 03:40:24;;;;;;;0.60;0.60;;;10.10;99.90;;;;;;5246899;28;20020;-77
2022/04/25 03:42:56;;;;;;;0.60;0.60;;;10.10;99.90;;;;;;5246681;28;20039;-76
2022/04/25 03:45:32;;;;;;;0.73;0.73;;;10.10;99.90;;;;;;5244202;28;20016;-79
2022/04/25 03:48:07;;;;;;;0.60;0.60;;;10.10;99.90;;;;;;5206564;28;20033;-77
2022/04/25 03:50:38;;;;;;;;;;;10.10;99.90;;;;;;5243671;28;20040;-76
2022/04/25 03:53:14;;;;;;;0.70;0.70;;;10.10;99.90;;;;;;5229403;28;19900;-77
2022/04/25 03:58:39;;;;;;;0.57;0.57;;;10.10;99.90;;;;;;5245924;28;20024;-79
2022/04/25 04:01:13;;;;;;;0.80;0.80;;;10.20;99.90;;;;;;5245757;28;20049;-77
2022/04/25 04:03:46;;;;;;;0.60;0.60;;;10.20;99.90;;;;;;5225451;28;20260;-75
2022/04/25 04:06:25;;;;;;;0.60;0.60;;;10.30;99.90;;;;;;5232561;28;20052;-76
2022/04/25 04:08:59;;;;;;;0.68;0.68;;;10.40;99.90;;;;;;5242140;28;20325;-78
2022/04/25 04:11:46;;;;;;;0.80;0.80;;;10.40;99.90;;;;;;5229409;28;20037;-76
2022/04/25 04:14:22;;;;;;;0.80;0.80;;;10.50;99.90;;;;;;5224747;28;20055;-78
2022/04/25 04:16:53;;;;;;;0.50;0.50;;;10.50;99.90;;;;;;5236158;28;20032;-76
2022/04/25 04:19:25;;;;;;;0.70;0.70;;;10.60;99.90;;;;;;5241018;28;20317;-78
2022/04/25 04:22:02;;;;;;;0.60;0.60;;;10.60;99.90;;;;;;5224786;28;20024;-75
2022/04/25 04:24:36;;;;;;;0.68;0.68;;;10.60;99.90;;;;;;5241926;28;20333;-77
2022/04/25 04:27:08;;;;;;;;;;;10.60;99.90;;;;;;5228221;28;20021;-76
2022/04/25 04:29:40;;;;;;;0.60;0.60;;;10.60;99.90;;;;;;5204615;28;19912;-77
2022/04/25 04:32:14;;;;;;;0.50;0.50;;;10.60;99.90;;;;;;5242139;28;20033;-77
2022/04/25 04:34:45;;;;;;;0.85;0.85;;;10.60;99.90;;;;;;5239104;28;20123;-78
2022/04/25 04:37:18;;;;;;;0.60;0.60;;;10.60;99.90;;;;;;5189051;28;20067;-75
2022/04/25 04:39:50;;;;;;;0.80;0.80;;;10.70;99.90;;;;;;5232418;28;20241;-77
2022/04/25 04:42:22;;;;;;;0.80;0.80;;;10.80;99.90;;;;;;5245877;28;20016;-77
2022/04/25 04:44:53;;;;;;;0.77;0.77;;;10.80;99.90;;;;;;5225037;28;20364;-78
2022/04/25 04:47:24;;;;;;;0.70;0.70;;;10.80;99.90;;;;;;5227061;28;20256;-77
2022/04/25 04:49:56;;;;;;;0.70;0.70;;;10.90;99.90;;;;;;5243756;28;20025;-76
2022/04/25 04:52:29;;;;;;;0.70;0.70;;;10.80;99.90;;;;;;5243946;28;20046;-78
2022/04/25 04:55:01;;;;;;;0.70;0.70;;;10.80;99.90;;;;;;5244136;28;20040;-78
2022/04/25 04:57:38;;;;;;;0.80;0.80;;;10.90;99.90;;;;;;5223012;28;20047;-78
2022/04/25 05:00:13;;;;;;;0.63;0.63;;;10.90;99.90;;;;;;5242116;28;20024;-77
2022/04/25 05:02:45;;;;;;;0.70;0.70;;;10.80;99.90;;;;;;5221946;28;20246;-78
2022/04/25 05:05:16;;;;;;;0.60;0.60;;;10.80;99.90;;;;;;5194929;28;20045;-77
2022/04/25 05:07:50;;;;;;;0.60;0.60;;;10.80;99.90;;;;;;5221482;28;20039;-77
2022/04/25 05:10:21;;;;;;;1.15;1.15;;;10.80;99.90;;;;;;5227737;28;20013;-78
2022/04/25 05:12:56;;;;;;;0.60;0.60;;;10.80;99.90;;;;;;5204003;28;20338;-78
2022/04/25 05:15:29;;;;;;;0.70;0.70;;;10.80;99.90;;;;;;5224666;28;20043;-77
2022/04/25 05:18:01;;;;;;;0.88;0.88;;;10.90;99.90;;;;;;5225645;28;20175;-77
2022/04/25 05:20:32;;;;;;;0.63;0.63;;;10.90;99.90;;;;;;5215737;28;20042;-77
2022/04/25 05:23:04;;;;;;;1.02;1.02;;;11.00;99.90;;;;;;5226867;28;20035;-76
2022/04/25 05:25:38;;;;;;;0.70;0.70;;;11.00;99.90;;;;;;5245895;28;20218;-78
2022/04/25 05:28:11;;;;;;;1.13;1.13;;;11.00;99.90;;;;;;5245808;28;20020;-76
2022/04/25 05:30:46;;;;;;;0.93;0.93;;;11.10;99.90;;;;;;5246481;28;20312;-77
2022/04/25 05:33:20;;;;;;;0.88;0.88;;;11.10;99.90;;;;;;5246362;28;20257;-77
2022/04/25 05:35:56;;;;;;;0.75;0.75;;;11.10;99.90;;;;;;5244422;28;20036;-77
2022/04/25 05:38:27;;;;;;;0.75;0.75;;;11.10;99.90;;;;;;5217782;28;20051;-77
2022/04/25 05:40:59;;;;;;;1.10;1.10;;;11.10;99.90;;;;;;5228159;28;20032;-77
2022/04/25 05:43:30;;;;;;;0.80;0.80;;;11.20;99.90;;;;;;5244617;28;20032;-77
2022/04/25 05:46:01;;;;;;;0.65;0.65;;;11.20;99.90;;;;;;5246982;28;20028;-75
2022/04/25 05:54:13;;;;;;;0.63;0.63;;;11.30;99.90;;;;;;5223396;28;20066;-78
2022/04/25 05:56:47;;;;;;;0.60;0.60;;;11.40;99.90;;;;;;5243242;28;20332;-78
2022/04/25 05:59:19;;;;;;;0.60;0.60;;;11.50;99.90;;;;;;5245051;28;20028;-77
2022/04/25 06:01:53;;;;;;;0.60;0.60;;;11.60;99.90;;;;;;5243817;28;20024;-76
2022/04/25 06:04:24;;;;;;;2.00;1.90;;;11.60;99.90;;;;;;5235158;28;20040;-78
2022/04/25 06:06:57;;;;;;;0.60;0.60;;;11.80;99.90;;;;;;5231375;28;20032;-76
2022/04/25 06:09:28;;;;;;;0.43;0.43;;;12.00;99.90;;;;;;5244972;28;20199;-76
2022/04/25 06:12:00;;;;;;;0.80;0.80;;;12.00;99.90;;;;;;5244661;28;20040;-75
2022/04/25 06:14:34;;;;;;;0.63;0.63;;;11.90;99.90;;;;;;5226932;28;20154;-77
2022/04/25 06:17:09;;;;;;;0.93;0.93;;;12.00;99.90;;;;;;5248457;28;20028;-78
2022/04/25 06:19:42;;;;;;;;;;;11.80;99.90;;;;;;5244021;28;20285;-74
2022/04/25 06:22:17;;;;;;;0.70;0.70;;;11.90;99.90;;;;;;5225906;28;20183;-76
2022/04/25 06:24:48;;;;;;;0.80;0.80;;;12.00;99.90;;;;;;5231007;28;20330;-78
2022/04/25 06:27:19;;;;;;;0.70;0.70;;;11.90;99.90;;;;;;5222317;28;20036;-77
2022/04/25 06:29:52;;;;;;;0.70;0.70;;;12.10;99.90;;;;;;5244897;28;20031;-76
2022/04/25 06:32:27;;;;;;;0.90;0.90;;;12.10;99.90;;;;;;5232003;28;20038;-77
2022/04/25 06:34:59;;;;;;;0.70;0.70;;;12.00;99.90;;;;;;5244885;28;20047;-77
2022/04/25 06:37:32;;;;;;;0.73;0.73;;;12.00;99.90;;;;;;5244570;28;20024;-77
2022/04/25 06:40:08;;;;;;;0.73;0.73;;;12.10;99.90;;;;;;5228271;28;20047;-79
2022/04/25 06:42:39;;;;;;;0.70;0.70;;;12.10;99.90;;;;;;5226297;28;20042;-78
2022/04/25 06:45:10;;;;;;;0.90;0.90;;;12.10;99.90;;;;;;5250552;28;20026;-77
2022/04/25 06:47:46;;;;;;;0.80;0.80;;;12.10;99.90;;;;;;5265312;28;20246;-76
2022/04/25 06:50:17;;;;;;;0.55;0.55;;;12.20;99.90;;;;;;5249448;28;20032;-77
2022/04/25 06:52:51;;;;;;;0.68;0.68;;;12.40;99.90;;;;;;5245137;28;20363;-76
2022/04/25 06:55:28;;;;;;;0.65;0.65;;;12.30;99.90;;;;;;5226641;28;20534;-77
2022/04/25 06:58:00;;;;;;;0.70;0.70;;;12.40;99.90;;;;;;5225944;28;20029;-77
2022/04/25 07:00:31;;;;;;;0.65;0.65;;;12.20;99.90;;;;;;5241296;28;20317;-77
2022/04/25 07:03:03;;;;;;;0.70;0.70;;;12.20;99.90;;;;;;5243280;28;20036;-78
2022/04/25 07:05:37;;;;;;;0.60;0.60;;;12.10;99.90;;;;;;5222561;28;20056;-77
2022/04/25 07:08:08;;;;;;;0.70;0.70;;;12.40;99.90;;;;;;5225000;28;20036;-76
2022/04/25 07:10:42;;;;;;;1.00;1.00;;;12.70;99.90;;;;;;5242754;28;20042;-76
2022/04/25 07:13:13;;;;;;;0.70;0.70;;;13.00;99.90;;;;;;5243204;28;20042;-76
2022/04/25 07:15:45;;;;;;;0.60;0.60;;;13.10;99.90;;;;;;5243580;28;20253;-77
2022/04/25 07:18:17;;;;;;;0.70;0.70;;;13.50;99.90;;;;;;5247437;28;20051;-77
2022/04/25 07:20:48;;;;;;;0.55;0.55;;;13.60;99.90;;;;;;5243126;28;20020;-76
2022/04/25 07:28:59;;;;;;;0.70;0.70;;;13.50;99.90;;;;;;5247749;28;20042;-77
2022/04/25 07:31:36;;;;;;;0.75;0.75;;;13.40;99.90;;;;;;5228979;28;20291;-77
2022/04/25 07:34:07;;;;;;;0.60;0.60;;;13.80;99.90;;;;;;5264460;28;20042;-77
2022/04/25 07:36:39;;;;;;;0.60;0.60;;;13.90;99.90;;;;;;5264274;28;20027;-77
2022/04/25 07:39:11;;;;;;;0.90;0.90;;;14.00;99.90;;;;;;5263483;28;20032;-78
2022/04/25 07:41:44;;;;;;;0.70;0.70;;;14.00;99.90;;;;;;5244748;28;20036;-77
2022/04/25 07:44:16;;;;;;;0.50;0.50;;;14.00;99.90;;;;;;5262550;28;20034;-78
2022/04/25 07:46:53;;;;;;;0.77;0.77;;;14.20;99.90;;;;;;5259441;28;20031;-78
2022/04/25 07:49:27;;;;;;;0.80;0.80;;;14.40;99.90;;;;;;5241291;28;20028;-77
2022/04/25 07:52:04;;;;;;;0.70;0.70;;;14.70;99.90;;;;;;5242293;28;20246;-77
2022/04/25 07:54:35;;;;;;;0.60;0.60;;;15.00;99.90;;;;;;5245335;28;20340;-76
2022/04/25 07:57:09;;;;;;;0.63;0.63;;;15.00;99.90;;;;;;5227840;28;20034;-76
2022/04/25 07:59:43;;;;;;;0.82;0.82;;;15.20;99.90;;;;;;5261301;28;20137;-76
2022/04/25 08:02:20;;;;;;;0.88;0.88;;;14.90;99.90;;;;;;5250808;28;20059;-76
2022/04/25 08:04:53;;;;;;;0.68;0.68;;;15.00;99.90;;;;;;5211570;28;20376;-77
2022/04/25 08:07:24;;;;;;;0.80;0.80;;;15.40;99.90;;;;;;5231939;28;20025;-77
2022/04/25 08:10:00;;;;;;;0.80;0.80;;;15.70;99.90;;;;;;5223079;28;20055;-76
2022/04/25 08:18:14;;;;;;;0.70;0.70;;;15.30;99.90;;;;;;5250922;28;20241;-78
2022/04/25 08:20:47;;;;;;;0.73;0.73;;;15.50;99.90;;;;;;5241796;28;20045;-75
2022/04/25 08:23:22;;;;;;;0.80;0.80;;;15.40;99.90;;;;;;5237764;28;20028;-75
2022/04/25 08:25:53;;;;;;;;;;;15.70;99.90;;;;;;5243160;28;20036;-76
2022/04/25 08:28:26;;;;;;;0.50;0.50;;;15.30;99.90;;;;;;5223742;28;19901;-79
2022/04/25 08:31:00;;;;;;;0.98;0.98;;;15.10;99.90;;;;;;5223764;28;20059;-76
2022/04/25 08:33:34;;;;;;;0.80;0.80;;;15.00;99.90;;;;;;5240321;28;20285;-75
2022/04/25 08:36:05;;;;;;;0.70;0.70;;;14.80;99.90;;;;;;5242381;28;20020;-76
2022/04/25 08:38:36;;;;;;;0.70;0.70;;;14.60;99.90;;;;;;5242967;28;20043;-73
2022/04/25 08:41:10;;;;;;;0.60;0.60;;;15.00;99.90;;;;;;5225614;28;20143;-77
2022/04/25 08:43:45;;;;;;;0.70;0.70;;;14.90;99.90;;;;;;5243133;28;20503;-75
2022/04/25 08:46:16;;;;;;;2.00;1.77;;;14.60;99.90;;;;;;5242241;28;20036;-78
2022/04/25 08:48:49;;;;;;;0.60;0.60;;;14.60;99.90;;;;;;5232322;28;20332;-79
2022/04/25 08:51:22;;;;;;;0.60;0.60;;;15.00;99.90;;;;;;5234740;28;20063;-77
2022/04/25 08:53:57;;;;;;;0.70;0.70;;;14.90;99.90;;;;;;5216241;28;20032;-76
2022/04/25 08:56:32;;;;;;;0.80;0.80;;;14.70;99.90;;;;;;5237302;28;20329;-78
2022/04/25 08:59:07;;;;;;;0.70;0.70;;;14.60;99.90;;;;;;5223531;28;20265;-76
2022/04/25 09:01:40;;;;;;;0.80;0.80;;;14.30;99.90;;;;;;5184650;28;20044;-76
2022/04/25 09:04:14;;;;;;;0.60;0.60;;;14.60;99.90;;;;;;5214489;28;20025;-76
2022/04/25 09:06:47;;;;;;;0.70;0.70;;;14.70;99.90;;;;;;5188446;28;20053;-77
2022/04/25 09:09:21;;;;;;;0.70;0.70;;;14.70;99.90;;;;;;5217111;28;20056;-77
2022/04/25 09:12:09;;;;;;;0.80;0.80;;;15.10;99.90;;;;;;5204214;28;20073;-79
2022/04/25 09:14:45;;;;;;;0.80;0.80;;;15.70;99.90;;;;;;5212419;28;20044;-78
2022/04/25 09:17:19;;;;;;;0.60;0.60;;;15.70;99.90;;;;;;5219083;28;20031;-75
2022/04/25 09:19:50;;;;;;;0.80;0.80;;;15.50;99.90;;;;;;5206938;28;20326;-80
2022/04/25 09:22:36;;;;;;;0.70;0.70;;;14.90;99.90;;;;;;5224723;28;20039;-76
2022/04/25 09:25:18;;;;;;;0.70;0.70;;;14.70;99.90;;;;;;5209704;28;20051;-78
2022/04/25 09:28:06;;;;;;;0.60;0.60;;;14.40;99.90;;;;;;5211590;28;20387;-78
2022/04/25 09:30:41;;;;;;;0.77;0.77;;;14.60;99.90;;;;;;5231577;28;20024;-80
2022/04/25 09:33:24;;;;;;;0.90;0.90;;;15.10;99.90;;;;;;5247762;28;20039;-79
2022/04/25 09:35:56;;;;;;;0.70;0.70;;;15.50;99.90;;;;;;5232809;28;20341;-77
2022/04/25 09:38:33;;;;;;;0.60;0.60;;;15.80;99.90;;;;;;5192602;28;20478;-76
2022/04/25 09:41:09;;;;;;;0.90;0.90;;;15.00;99.90;;;;;;5234800;28;20043;-75
2022/04/25 09:43:42;;;;;;;0.90;0.90;;;15.20;99.90;;;;;;5224388;28;20023;-78
2022/04/25 09:46:15;;;;;;;0.75;0.75;;;15.30;99.90;;;;;;5224584;28;20063;-76
2022/04/25 09:49:02;;;;;;;0.60;0.60;;;15.70;99.90;;;;;;5224588;28;20039;-78
2022/04/25 09:51:37;;;;;;;0.70;0.70;;;15.30;99.90;;;;;;5238171;28;20043;-77
2022/04/25 09:54:09;;;;;;;0.65;0.65;;;14.60;99.90;;;;;;5243739;28;20302;-75
2022/04/25 09:56:42;;;;;;;0.60;0.60;;;14.70;99.90;;;;;;5244717;28;20027;-80
2022/04/25 09:59:14;;;;;;;0.68;0.68;;;15.10;99.90;;;;;;5243792;28;20042;-75
2022/04/25 10:02:07;;;;;;;0.98;0.98;;;15.60;99.90;;;;;;5225528;28;20032;-76
2022/04/25 10:04:38;;;;;;;0.95;0.95;;;15.90;99.90;;;;;;5195192;28;20053;-77
2022/04/25 10:07:12;;;;;;;0.70;0.70;;;15.90;99.90;;;;;;5240394;28;20031;-78
2022/04/25 10:09:45;;;;;;;0.80;0.80;;;15.60;99.90;;;;;;5265658;28;20020;-77
2022/04/25 10:12:17;;;;;;;0.77;0.77;;;15.80;99.90;;;;;;5253284;28;20025;-78
2022/04/25 10:14:49;;;;;;;0.70;0.70;;;16.00;99.90;;;;;;5244023;28;20027;-77
2022/04/25 10:17:21;;;;;;;1.08;1.08;;;16.40;99.90;;;;;;5244118;28;20040;-77
2022/04/25 10:19:56;;;;;;;0.70;0.70;;;16.80;99.90;;;;;;5226304;28;20040;-76
2022/04/25 10:22:30;;;;;;;0.68;0.68;;;16.70;99.90;;;;;;5244700;28;20039;-76
2022/04/25 10:25:03;;;;;;;0.70;0.70;;;17.00;99.90;;;;;;5242661;28;20024;-76
2022/04/25 10:27:38;;;;;;;0.70;0.70;;;17.00;99.90;;;;;;5249698;28;20020;-75
2022/04/25 10:30:16;;;;;;;;;;;17.10;99.90;;;;;;5249161;28;20341;-78
2022/04/25 10:32:47;;;;;;;0.50;0.50;;;17.20;99.90;;;;;;5237008;28;19909;-77
2022/04/25 10:35:31;;;;;;;0.70;0.70;;;17.20;99.90;;;;;;5258397;28;20367;-76
2022/04/25 10:38:47;;;;;;;0.70;0.70;;;17.00;99.90;;;;;;5223688;28;20055;-78
2022/04/25 10:44:35;;;;;;;0.77;0.77;;;16.20;99.90;;;;;;5239545;28;20364;-77
2022/04/25 10:47:07;;;;;;;0.85;0.85;;;16.50;99.90;;;;;;5227760;28;20039;-77
2022/04/25 10:49:48;;;;;;;1.15;1.15;;;15.70;99.90;;;;;;5241093;28;20041;-76
2022/04/25 10:52:42;;;;;;;0.70;0.70;;;15.90;99.90;;;;;;5223781;28;20054;-76
2022/04/25 10:55:21;;;;;;;1.10;1.10;;;16.30;99.90;;;;;;5235439;28;20040;-77
2022/04/25 10:58:02;;;;;;;1.10;1.10;;;15.70;99.90;;;;;;5198353;28;20025;-78
2022/04/25 11:00:45;;;;;;;0.60;0.60;;;16.50;99.90;;;;;;5204309;28;20051;-77
2022/04/25 11:03:25;;;;;;;1.00;1.00;;;17.50;99.90;;;;;;5224980;28;20051;-78
2022/04/25 11:05:57;;;;;;;0.93;0.93;;;18.00;99.90;;;;;;5224730;28;20053;-76
2022/04/25 11:08:34;;;;;;;0.70;0.70;;;17.90;99.90;;;;;;5220662;28;20353;-77
2022/04/25 11:11:24;;;;;;;0.75;0.75;;;18.20;99.90;;;;;;5219775;28;20063;-76
2022/04/25 11:14:01;;;;;;;0.75;0.75;;;19.70;99.90;;;;;;5200023;28;20060;-79
2022/04/25 11:16:39;;;;;;;0.70;0.70;;;18.50;99.90;;;;;;5220129;28;20032;-78
2022/04/25 11:19:22;;;;;;;1.10;1.10;;;17.60;99.90;;;;;;5206625;28;20025;-78
2022/04/25 11:21:55;;;;;;;1.20;1.20;;;16.90;99.90;;;;;;5206510;28;20028;-79
2022/04/25 11:24:33;;;;;;;0.70;0.70;;;16.10;99.90;;;;;;5207202;28;20027;-78
2022/04/25 11:27:12;;;;;;;1.02;1.02;;;15.50;99.90;;;;;;5216525;28;20039;-77
2022/04/25 11:30:09;;;;;;;0.65;0.65;;;15.40;99.90;;;;;;5222701;28;20444;-79
2022/04/25 11:32:43;;;;;;;0.63;0.63;;;15.90;99.90;;;;;;5222747;28;20038;-77
2022/04/25 11:35:16;;;;;;;1.35;1.25;;;17.00;99.90;;;;;;5225089;28;20041;-78
2022/04/25 11:37:49;;;;;;;0.85;0.85;;;18.30;99.90;;;;;;5223682;28;20033;-78
2022/04/25 11:40:27;;;;;;;0.50;0.50;;;19.60;99.90;;;;;;5227605;28;20036;-79
2022/04/25 11:43:00;;;;;;;1.33;1.33;;;19.80;99.90;;;;;;5226726;28;20680;-79
2022/04/25 11:45:33;;;;;;;0.80;0.80;;;20.00;99.90;;;;;;5228973;28;20033;-78
2022/04/25 11:48:12;;;;;;;0.75;0.75;;;19.30;99.90;;;;;;5230169;28;20017;-78
2022/04/25 11:50:48;;;;;;;0.95;0.95;;;19.10;99.90;;;;;;5232577;28;20029;-79
2022/04/25 11:53:35;;;;;;;0.70;0.70;;;19.10;99.90;;;;;;5239279;28;20043;-79
2022/04/25 11:56:17;;;;;;;0.82;0.82;;;19.80;99.90;;;;;;5241741;28;20461;-79
2022/04/25 11:58:52;;;;;;;0.60;0.60;;;19.50;99.90;;;;;;5257633;28;20238;-77
2022/04/25 12:01:38;;;;;;;1.35;1.35;;;19.40;99.90;;;;;;5239471;28;20028;-79
2022/04/25 12:04:33;;;;;;;1.30;1.30;;;19.00;99.90;;;;;;5238104;28;20256;-78
2022/04/25 12:07:07;;;;;;;0.90;0.90;;;18.70;99.90;;;;;;5231814;28;20031;-80
2022/04/25 12:15:34;;;;;;;1.00;1.00;;;19.60;99.90;;;;;;5226006;28;20047;-79
2022/04/25 12:15:40;;;;;;;1.00;1.00;;;20.00;99.90;;;;;;5241698;28;20533;-76
2022/04/25 12:18:26;;;;;;;0.65;0.65;;;19.10;99.90;;;;;;5250159;28;20029;-78
2022/04/25 12:21:08;;;;;;;0.88;0.88;;;19.30;99.90;;;;;;5224591;28;20041;-79
2022/04/25 12:24:01;;;;;;;0.90;0.90;;;19.10;99.90;;;;;;5230283;28;20012;-76
2022/04/25 12:26:34;;;;;;;1.00;1.00;;;19.50;99.90;;;;;;5237839;28;20032;-79
2022/04/25 12:29:09;;;;;;;0.60;0.60;;;19.30;99.90;;;;;;5243426;28;20020;-78
2022/04/25 12:31:46;;;;;;;0.70;0.70;;;18.80;99.90;;;;;;5244654;28;20032;-77
2022/04/25 12:34:20;;;;;;;1.58;1.48;;;17.80;99.90;;;;;;5256508;28;20027;-78
2022/04/25 12:36:56;;;;;;;0.98;0.98;;;17.30;99.90;;;;;;5261662;28;20040;-78
2022/04/25 12:39:30;;;;;;;0.60;0.60;;;17.30;99.90;;;;;;5256238;28;20049;-78
2022/04/25 12:42:02;;;;;;;1.33;1.10;;;16.80;99.90;;;;;;5251866;28;20253;-75
2022/04/25 12:44:33;;;;;;;0.80;0.80;;;16.70;99.90;;;;;;5238252;28;20033;-75
2022/04/25 12:47:07;;;;;;;1.00;1.00;;;16.50;99.90;;;;;;5255303;28;20028;-76
2022/04/25 12:49:43;;;;;;;0.82;0.82;;;16.40;99.90;;;;;;5242385;28;20044;-76
2022/04/25 12:52:17;;;;;;;0.63;0.63;;;16.30;99.90;;;;;;5232839;28;20327;-79
2022/04/25 12:54:51;;;;;;;0.82;0.82;;;16.00;99.90;;;;;;5230206;28;20036;-77
2022/04/25 12:57:24;;;;;;;0.88;0.88;;;15.50;99.90;;;;;;5240243;28;20043;-76
2022/04/25 12:59:55;;;;;;;1.00;1.00;;;15.80;99.90;;;;;;5244478;28;20145;-75
2022/04/25 13:02:26;;;;;;;0.60;0.60;;;16.50;99.90;;;;;;5249433;28;20032;-76
2022/04/25 13:05:08;;;;;;;0.93;0.93;;;17.70;99.90;;;;;;5233688;28;20045;-78
2022/04/25 13:07:48;;;;;;;0.50;0.50;;;18.50;99.90;;;;;;5223664;28;20020;-77
2022/04/25 13:10:21;;;;;;;0.90;0.90;;;19.70;99.90;;;;;;5230987;28;20063;-78
2022/04/25 13:12:56;;;;;;;2.03;1.88;;;18.70;99.90;;;;;;5234441;28;20040;-78
2022/04/25 13:15:30;;;;;;;0.60;0.60;;;19.50;99.90;;;;;;5243195;28;20472;-76
2022/04/25 13:18:01;;;;;;;1.25;1.15;;;19.80;99.90;;;;;;5238978;28;20016;-77
2022/04/25 13:20:35;;;;;;;0.45;0.45;;;20.00;99.90;;;;;;5220881;28;20032;-77
2022/04/25 13:23:07;;;;;;;0.63;0.63;;;19.60;99.90;;;;;;5240565;28;20190;-77
2022/04/25 13:25:43;;;;;;;1.13;1.13;;;19.30;99.90;;;;;;5222586;28;20237;-77
2022/04/25 13:28:14;;;;;;;1.15;1.15;;;19.60;99.90;;;;;;5224015;28;20032;-78
2022/04/25 13:30:45;;;;;;;1.25;1.15;;;18.80;99.90;;;;;;5226999;28;20040;-75
2022/04/25 13:33:19;;;;;;;0.98;0.98;;;17.60;99.90;;;;;;5238909;28;20043;-76
2022/04/25 13:35:50;;;;;;;2.47;1.97;;;17.50;99.90;;;;;;5231831;28;20027;-78
2022/04/25 13:38:22;;;;;;;0.70;0.70;;;17.10;99.90;;;;;;5241135;28;20111;-78
2022/04/25 13:40:53;;;;;;;2.03;1.92;;;17.00;99.90;;;;;;5248133;28;20414;-78
2022/04/25 13:43:29;;;;;;;0.88;0.88;;;17.70;99.90;;;;;;5241776;28;20028;-77
2022/04/25 13:46:01;;;;;;;0.70;0.70;;;17.40;99.90;;;;;;5241695;28;20022;-76
2022/04/25 13:48:34;;;;;;;1.20;1.20;;;18.20;99.90;;;;;;5222490;28;20043;-77
2022/04/25 13:51:07;;;;;;;0.70;0.70;;;18.70;99.90;;;;;;5235649;28;20043;-76
2022/04/25 13:53:40;;;;;;;0.90;0.90;;;17.20;99.90;;;;;;5203971;28;20350;-77
2022/04/25 13:56:12;;;;;;;0.90;0.90;;;16.50;99.90;;;;;;5220554;28;20016;-77